createdAt,value
2023-05-22T00:01:02.517Z,6.79
2023-05-22T00:03:31.116Z,6.75
2023-05-22T00:05:58.312Z,6.59
2023-05-22T00:08:29.420Z,7.38
2023-05-22T00:10:56.914Z,6.62
2023-05-22T00:13:25.092Z,7.16
2023-05-22T00:15:56.716Z,6.99
2023-05-22T00:18:24.677Z,6.89
2023-05-22T00:20:52.053Z,7.46
2023-05-22T00:23:19.088Z,7.96
2023-05-22T00:25:47.023Z,8.26
2023-05-22T00:28:14.122Z,9.05
2023-05-22T00:30:43.918Z,8.56
2023-05-22T00:33:10.751Z,7.83
2023-05-22T00:35:38.903Z,7.34
2023-05-22T00:38:06.199Z,7.58
2023-05-22T00:40:34.142Z,8.17
2023-05-22T00:43:01.371Z,8.58
2023-05-22T00:45:29.202Z,8.81
2023-05-22T00:48:00.592Z,8.35
2023-05-22T00:50:28.062Z,8.64
2023-05-22T00:52:55.699Z,8.63
2023-05-22T00:55:23.102Z,8.16
2023-05-22T00:57:51.557Z,8.64
2023-05-22T01:00:19.761Z,9.27
2023-05-22T01:02:49.259Z,11.95
2023-05-22T01:05:24.002Z,11.10
2023-05-22T01:07:54.015Z,10.21
2023-05-22T01:10:22.005Z,11.35
2023-05-22T01:12:56.697Z,10.97
2023-05-22T01:15:42.983Z,10.08
2023-05-22T01:18:16.320Z,11.23
2023-05-22T01:20:53.894Z,10.39
2023-05-22T01:24:04.109Z,9.66
2023-05-22T01:26:58.289Z,8.63
2023-05-22T01:29:41.131Z,8.14
2023-05-22T01:32:14.500Z,8.79
2023-05-22T01:34:44.370Z,8.81
2023-05-22T01:37:13.241Z,9.42
2023-05-22T01:39:41.765Z,9.60
2023-05-22T01:42:09.185Z,10.05
2023-05-22T01:44:37.576Z,9.29
2023-05-22T01:47:04.852Z,9.55
2023-05-22T01:49:34.622Z,9.83
2023-05-22T01:52:08.368Z,9.32
2023-05-22T01:54:39.445Z,8.85
2023-05-22T01:57:13.357Z,8.58
2023-05-22T01:59:45.182Z,8.41
2023-05-22T02:02:22.627Z,7.92
2023-05-22T02:04:59.286Z,8.81
2023-05-22T02:07:29.465Z,9.09
2023-05-22T02:09:58.428Z,8.61
2023-05-22T02:12:26.210Z,8.41
2023-05-22T02:14:54.551Z,10.69
2023-05-22T02:17:22.928Z,10.25
2023-05-22T02:19:50.968Z,9.69
2023-05-22T02:22:19.316Z,11.15
2023-05-22T02:24:47.600Z,10.29
2023-05-22T02:27:14.690Z,10.20
2023-05-22T02:29:42.259Z,9.30
2023-05-22T02:32:09.953Z,9.32
2023-05-22T02:34:36.740Z,10.68
2023-05-22T02:37:03.997Z,11.52
2023-05-22T02:39:36.097Z,10.61
2023-05-22T02:42:03.117Z,9.40
2023-05-22T02:44:30.215Z,8.55
2023-05-22T02:46:57.351Z,8.74
2023-05-22T02:49:25.051Z,8.32
2023-05-22T02:51:53.391Z,8.32
2023-05-22T02:54:20.290Z,10.63
2023-05-22T02:56:51.955Z,9.83
2023-05-22T02:59:23.825Z,9.39
2023-05-22T03:01:51.847Z,8.70
2023-05-22T03:04:18.677Z,8.19
2023-05-22T03:06:45.499Z,8.00
2023-05-22T03:09:12.380Z,8.50
2023-05-22T03:11:39.700Z,8.42
2023-05-22T03:14:09.531Z,8.50
2023-05-22T03:16:36.432Z,9.10
2023-05-22T03:19:11.279Z,8.36
2023-05-22T03:21:39.197Z,8.74
2023-05-22T03:24:06.880Z,10.09
2023-05-22T03:26:34.337Z,10.25
2023-05-22T03:29:01.233Z,9.52
2023-05-22T03:31:30.096Z,8.62
2023-05-22T03:33:57.232Z,8.95
2023-05-22T03:36:24.191Z,8.01
2023-05-22T03:38:50.955Z,9.18
2023-05-22T03:41:17.954Z,9.59
2023-05-22T03:43:45.924Z,9.16
2023-05-22T03:46:12.977Z,9.34
2023-05-22T03:48:42.398Z,8.89
2023-05-22T03:51:09.254Z,8.15
2023-05-22T03:53:36.048Z,8.10
2023-05-22T03:56:03.038Z,8.48
2023-05-22T03:58:29.894Z,8.87
2023-05-22T04:00:56.924Z,9.89
2023-05-22T04:03:23.973Z,8.91
2023-05-22T04:05:52.832Z,8.87
2023-05-22T04:08:20.831Z,8.43
2023-05-22T04:10:49.240Z,8.43
2023-05-22T04:13:17.469Z,8.67
2023-05-22T04:15:44.322Z,8.49
2023-05-22T04:18:12.335Z,7.89
2023-05-22T04:20:39.893Z,8.02
2023-05-22T04:23:08.884Z,8.53
2023-05-22T04:25:35.882Z,7.96
2023-05-22T04:28:02.989Z,9.26
2023-05-22T04:30:30.013Z,9.02
2023-05-22T04:32:57.303Z,8.98
2023-05-22T04:35:24.200Z,9.15
2023-05-22T04:37:50.968Z,9.14
2023-05-22T04:40:19.204Z,9.32
2023-05-22T04:42:46.093Z,10.42
2023-05-22T04:45:14.025Z,9.48
2023-05-22T04:47:43.592Z,8.57
2023-05-22T04:50:10.929Z,8.21
2023-05-22T04:52:37.712Z,8.19
2023-05-22T04:55:06.227Z,8.25
2023-05-22T04:57:34.514Z,8.51
2023-05-22T05:00:04.622Z,8.78
2023-05-22T05:02:31.759Z,9.29
2023-05-22T05:04:58.691Z,8.41
2023-05-22T05:07:25.921Z,8.21
2023-05-22T05:09:52.722Z,8.85
2023-05-22T05:12:19.919Z,9.42
2023-05-22T05:14:49.847Z,8.99
2023-05-22T05:17:17.693Z,10.21
2023-05-22T05:19:45.552Z,10.34
2023-05-22T05:22:12.903Z,11.54
2023-05-22T05:24:39.805Z,12.23
2023-05-22T05:27:07.298Z,13.78
2023-05-22T05:29:35.792Z,13.66
2023-05-22T05:32:06.410Z,14.01
2023-05-22T05:34:35.894Z,11.69
2023-05-22T05:37:03.977Z,10.08
2023-05-22T05:39:31.016Z,9.04
2023-05-22T05:41:58.025Z,9.07
2023-05-22T05:44:24.885Z,9.18
2023-05-22T05:46:51.810Z,8.15
2023-05-22T05:49:20.616Z,7.49
2023-05-22T05:51:47.539Z,7.61
2023-05-22T05:54:14.802Z,7.59
2023-05-22T05:56:43.523Z,8.84
2023-05-22T05:59:11.139Z,7.64
2023-05-22T06:01:44.722Z,7.36
2023-05-22T06:04:11.739Z,6.71
2023-05-22T06:06:41.373Z,6.37
2023-05-22T06:09:09.310Z,6.70
2023-05-22T06:11:37.964Z,6.43
2023-05-22T06:14:06.997Z,6.33
2023-05-22T06:16:35.913Z,5.81
2023-05-22T06:19:02.924Z,5.52
2023-05-22T06:21:30.004Z,5.41
2023-05-22T06:23:59.501Z,6.87
2023-05-22T06:26:26.334Z,6.10
2023-05-22T06:28:53.479Z,5.58
2023-05-22T06:31:21.055Z,6.34
2023-05-22T06:33:48.191Z,5.76
2023-05-22T06:36:15.691Z,5.89
2023-05-22T06:38:44.183Z,5.54
2023-05-22T06:41:12.984Z,6.16
2023-05-22T06:43:40.017Z,6.13
2023-05-22T06:46:07.509Z,5.59
2023-05-22T06:48:35.887Z,5.43
2023-05-22T06:51:03.248Z,5.40
2023-05-22T06:53:30.160Z,5.41
2023-05-22T06:55:57.041Z,5.80
2023-05-22T06:58:25.248Z,6.18
2023-05-22T07:00:52.297Z,5.73
2023-05-22T07:03:19.305Z,6.13
2023-05-22T07:05:46.163Z,5.38
2023-05-22T07:08:13.534Z,5.42
2023-05-22T07:10:40.767Z,5.64
2023-05-22T07:13:08.907Z,5.76
2023-05-22T07:15:37.423Z,5.44
2023-05-22T07:18:04.949Z,5.23
2023-05-22T07:20:31.936Z,5.29
2023-05-22T07:22:59.015Z,5.55
2023-05-22T07:25:25.895Z,5.27
2023-05-22T07:27:52.691Z,5.52
2023-05-22T07:30:19.653Z,5.26
2023-05-22T07:32:49.282Z,5.39
2023-05-22T07:35:17.137Z,5.75
2023-05-22T07:37:45.381Z,5.31
2023-05-22T07:40:12.927Z,5.39
2023-05-22T07:42:40.582Z,5.11
2023-05-22T07:45:09.041Z,5.80
2023-05-22T07:47:36.280Z,5.88
2023-05-22T07:50:05.571Z,5.41
2023-05-22T07:52:32.435Z,5.02
2023-05-22T07:54:59.311Z,4.70
2023-05-22T07:57:26.197Z,4.92
2023-05-22T07:59:53.091Z,4.95
2023-05-22T08:02:19.967Z,4.72
2023-05-22T08:04:46.814Z,4.39
2023-05-22T08:07:15.032Z,4.58
2023-05-22T08:09:41.878Z,4.52
2023-05-22T08:12:09.289Z,4.62
2023-05-22T08:14:36.594Z,4.62
2023-05-22T08:17:03.680Z,4.18
2023-05-22T08:19:30.622Z,4.09
2023-05-22T08:21:57.452Z,4.14
2023-05-22T08:24:25.710Z,4.33
2023-05-22T08:26:52.522Z,4.34
2023-05-22T08:29:20.402Z,5.08
2023-05-22T08:31:47.235Z,4.77
2023-05-22T08:34:14.025Z,5.08
2023-05-22T08:36:40.871Z,5.18
2023-05-22T08:39:09.611Z,5.07
2023-05-22T08:41:37.962Z,4.58
2023-05-22T08:44:05.279Z,4.22
2023-05-22T08:46:33.697Z,4.61
2023-05-22T08:49:01.148Z,4.47
2023-05-22T08:51:32.087Z,4.80
2023-05-22T08:53:59.340Z,4.69
2023-05-22T08:56:28.672Z,4.30
2023-05-22T08:58:59.837Z,4.40
2023-05-22T09:01:27.957Z,4.72
2023-05-22T09:03:55.854Z,6.61
2023-05-22T09:06:22.904Z,5.90
2023-05-22T09:08:51.476Z,5.88
2023-05-22T09:11:18.574Z,5.38
2023-05-22T09:13:45.534Z,4.91
2023-05-22T09:16:14.309Z,5.49
2023-05-22T09:18:42.299Z,4.89
2023-05-22T09:21:25.840Z,4.96
2023-05-22T09:24:00.434Z,5.73
2023-05-22T09:26:27.736Z,5.83
2023-05-22T09:28:54.959Z,5.55
2023-05-22T09:31:28.488Z,5.20
2023-05-22T09:33:57.231Z,4.95
2023-05-22T09:36:35.853Z,5.44
2023-05-22T09:39:05.711Z,5.51
2023-05-22T09:41:37.093Z,5.22
2023-05-22T09:44:12.679Z,5.70
2023-05-22T09:46:44.130Z,6.04
2023-05-22T09:49:13.270Z,6.03
2023-05-22T09:51:44.788Z,6.01
2023-05-22T09:54:13.974Z,5.33
2023-05-22T09:56:44.239Z,5.03
2023-05-22T09:59:15.042Z,6.80
2023-05-22T10:01:47.238Z,6.38
2023-05-22T10:04:18.350Z,6.36
2023-05-22T10:06:51.374Z,6.36
2023-05-22T10:09:23.622Z,5.69
2023-05-22T10:11:54.550Z,5.51
2023-05-22T10:14:22.429Z,5.85
2023-05-22T10:16:51.503Z,5.95
2023-05-22T10:19:18.772Z,5.57
2023-05-22T10:21:47.385Z,5.32
2023-05-22T10:24:15.398Z,5.99
2023-05-22T10:26:44.134Z,11.84
2023-05-22T10:29:17.198Z,9.52
2023-05-22T10:31:51.800Z,7.73
2023-05-22T10:34:28.378Z,6.86
2023-05-22T10:37:17.112Z,6.79
2023-05-22T10:40:00.890Z,6.20
2023-05-22T10:42:30.126Z,5.70
2023-05-22T10:44:57.062Z,6.55
2023-05-22T10:47:24.024Z,7.00
2023-05-22T10:50:03.812Z,7.86
2023-05-22T10:52:30.698Z,6.37
2023-05-22T10:55:00.220Z,5.47
2023-05-22T10:57:27.542Z,4.84
2023-05-22T11:00:10.564Z,4.88
2023-05-22T11:02:40.803Z,5.12
2023-05-22T11:05:37.850Z,4.66
2023-05-22T11:08:16.412Z,4.70
2023-05-22T11:10:55.262Z,4.10
2023-05-22T11:13:28.736Z,4.55
2023-05-22T11:15:58.311Z,4.43
2023-05-22T11:18:29.308Z,4.20
2023-05-22T11:21:00.067Z,4.07
2023-05-22T11:23:27.007Z,4.22
2023-05-22T11:25:54.100Z,5.59
2023-05-22T11:28:22.795Z,4.86
2023-05-22T11:30:50.815Z,4.29
2023-05-22T11:33:22.789Z,4.15
2023-05-22T11:35:53.571Z,4.25
2023-05-22T11:38:26.113Z,4.32
2023-05-22T11:40:52.941Z,3.74
2023-05-22T11:43:28.772Z,3.94
2023-05-22T11:46:00.250Z,4.36
2023-05-22T11:48:29.280Z,3.96
2023-05-22T11:50:56.922Z,4.39
2023-05-22T11:53:25.361Z,3.58
2023-05-22T11:55:52.414Z,3.26
2023-05-22T11:58:22.164Z,2.72
2023-05-22T12:00:49.206Z,2.81
2023-05-22T12:03:16.281Z,3.34
2023-05-22T12:05:45.513Z,3.12
2023-05-22T12:08:12.489Z,3.38
2023-05-22T12:10:46.946Z,2.88
2023-05-22T12:13:13.848Z,2.90
2023-05-22T12:15:40.729Z,2.98
2023-05-22T12:18:09.486Z,2.84
2023-05-22T12:20:41.373Z,2.57
2023-05-22T12:23:11.650Z,3.52
2023-05-22T12:25:40.333Z,3.02
2023-05-22T12:28:07.419Z,3.53
2023-05-22T12:30:41.039Z,3.30
2023-05-22T12:33:13.498Z,2.81
2023-05-22T12:35:41.750Z,3.06
2023-05-22T12:38:08.959Z,2.60
2023-05-22T12:40:35.958Z,2.19
2023-05-22T12:43:04.136Z,2.19
2023-05-22T12:45:30.988Z,2.23
2023-05-22T12:47:57.890Z,2.12
2023-05-22T12:50:24.799Z,2.20
2023-05-22T12:52:51.802Z,2.02
2023-05-22T12:55:18.732Z,2.36
2023-05-22T12:57:46.823Z,2.47
2023-05-22T13:00:16.122Z,2.21
2023-05-22T13:02:43.553Z,1.83
2023-05-22T13:05:10.592Z,1.72
2023-05-22T13:07:37.862Z,2.34
2023-05-22T13:10:05.877Z,1.98
2023-05-22T13:12:32.876Z,1.70
2023-05-22T13:15:00.189Z,1.52
2023-05-22T13:17:28.647Z,2.20
2023-05-22T13:19:55.914Z,3.12
2023-05-22T13:22:23.121Z,2.49
2023-05-22T13:24:49.943Z,2.28
2023-05-22T13:27:17.605Z,2.82
2023-05-22T13:29:44.519Z,2.19
2023-05-22T13:32:12.497Z,2.49
2023-05-22T13:34:41.163Z,2.68
2023-05-22T13:37:08.655Z,2.46
2023-05-22T13:39:35.520Z,2.78
2023-05-22T13:42:02.552Z,3.70
2023-05-22T13:44:29.477Z,3.26
2023-05-22T13:46:56.351Z,4.14
2023-05-22T13:49:23.186Z,2.82
2023-05-22T13:51:51.403Z,2.29
2023-05-22T13:54:18.213Z,1.89
2023-05-22T13:56:45.022Z,1.87
2023-05-22T13:59:12.091Z,2.08
2023-05-22T14:01:39.073Z,2.38
2023-05-22T14:04:06.362Z,1.81
2023-05-22T14:06:34.618Z,1.89
2023-05-22T14:09:04.781Z,2.16
2023-05-22T14:11:31.641Z,1.99
2023-05-22T14:13:58.553Z,1.50
2023-05-22T14:16:25.498Z,1.61
2023-05-22T14:18:52.438Z,1.64
2023-05-22T14:21:19.741Z,1.98
2023-05-22T14:23:46.561Z,2.15
2023-05-22T14:26:15.129Z,2.00
2023-05-22T14:28:42.658Z,1.61
2023-05-22T14:31:09.610Z,1.43
2023-05-22T14:33:36.495Z,1.55
2023-05-22T14:36:03.744Z,1.90
2023-05-22T14:38:31.974Z,2.22
2023-05-22T14:40:58.841Z,2.40
2023-05-22T14:43:27.032Z,1.88
2023-05-22T14:45:54.943Z,1.70
2023-05-22T14:48:22.501Z,1.32
2023-05-22T14:50:49.660Z,1.89
2023-05-22T14:53:16.437Z,2.04
2023-05-22T14:55:43.288Z,1.75
2023-05-22T14:58:10.136Z,2.07
2023-05-22T15:00:38.379Z,1.79
2023-05-22T15:03:05.262Z,2.25
2023-05-22T15:05:32.110Z,2.35
2023-05-22T15:07:59.997Z,2.68
2023-05-22T15:10:27.231Z,2.46
2023-05-22T15:12:54.549Z,2.14
2023-05-22T15:15:22.204Z,1.91
2023-05-22T15:17:51.805Z,1.45
2023-05-22T15:20:19.630Z,1.44
2023-05-22T15:22:46.608Z,1.89
2023-05-22T15:25:13.523Z,1.86
2023-05-22T15:27:41.272Z,2.23
2023-05-22T15:30:09.253Z,2.02
2023-05-22T15:32:37.254Z,2.02
2023-05-22T15:35:07.161Z,1.67
2023-05-22T15:37:34.419Z,1.55
2023-05-22T15:40:01.933Z,1.66
2023-05-22T15:42:29.443Z,1.73
2023-05-22T15:44:56.826Z,1.88
2023-05-22T15:47:23.747Z,2.27
2023-05-22T15:49:50.666Z,2.07
2023-05-22T15:52:18.826Z,2.34
2023-05-22T15:54:45.664Z,2.21
2023-05-22T15:57:13.282Z,2.10
2023-05-22T15:59:40.085Z,2.37
2023-05-22T16:02:07.276Z,1.84
2023-05-22T16:04:34.371Z,1.88
2023-05-22T16:07:01.152Z,2.16
2023-05-22T16:09:31.392Z,2.12
2023-05-22T16:11:59.376Z,1.95
2023-05-22T16:14:26.236Z,2.26
2023-05-22T16:16:53.094Z,1.84
2023-05-22T16:19:20.098Z,1.56
2023-05-22T16:21:46.976Z,2.01
2023-05-22T16:24:20.448Z,1.98
2023-05-22T16:26:52.456Z,2.01
2023-05-22T16:29:28.438Z,1.68
2023-05-22T16:32:03.433Z,1.49
2023-05-22T16:34:30.415Z,1.62
2023-05-22T16:36:59.445Z,1.42
2023-05-22T16:39:38.380Z,1.87
2023-05-22T16:42:07.791Z,1.51
2023-05-22T16:44:36.339Z,1.45
2023-05-22T16:47:04.007Z,2.46
2023-05-22T16:49:31.175Z,3.41
2023-05-22T16:51:58.117Z,3.63
2023-05-22T16:54:24.948Z,3.53
2023-05-22T16:56:51.883Z,2.98
2023-05-22T16:59:20.177Z,3.41
2023-05-22T17:01:47.716Z,3.81
2023-05-22T17:04:18.685Z,3.74
2023-05-22T17:06:47.995Z,3.28
2023-05-22T17:09:15.742Z,3.24
2023-05-22T17:11:43.183Z,3.14
2023-05-22T17:14:10.922Z,3.12
2023-05-22T17:16:39.599Z,3.06
2023-05-22T17:19:06.579Z,3.20
2023-05-22T17:21:33.389Z,2.97
2023-05-22T17:24:00.945Z,2.91
2023-05-22T17:26:27.826Z,2.72
2023-05-22T17:28:54.713Z,2.72
2023-05-22T17:31:22.286Z,2.90
2023-05-22T17:33:50.880Z,2.52
2023-05-22T17:36:18.241Z,2.82
2023-05-22T17:38:46.189Z,3.02
2023-05-22T17:41:13.558Z,3.17
2023-05-22T17:43:42.736Z,2.76
2023-05-22T17:46:09.804Z,2.94
2023-05-22T17:48:36.893Z,3.31
2023-05-22T17:51:05.895Z,4.05
2023-05-22T17:53:33.041Z,4.10
2023-05-22T17:56:00.223Z,4.44
2023-05-22T17:58:27.440Z,3.62
2023-05-22T18:00:54.294Z,3.35
2023-05-22T18:03:21.298Z,2.88
2023-05-22T18:05:48.647Z,2.97
2023-05-22T18:08:17.267Z,3.36
2023-05-22T18:10:44.245Z,3.17
2023-05-22T18:13:11.154Z,2.69
2023-05-22T18:15:38.127Z,3.29
2023-05-22T18:18:05.252Z,3.06
2023-05-22T18:20:32.465Z,2.80
2023-05-22T18:22:59.636Z,3.07
2023-05-22T18:25:27.895Z,3.10
2023-05-22T18:27:54.780Z,3.01
2023-05-22T18:30:21.896Z,3.86
2023-05-22T18:32:48.774Z,3.70
2023-05-22T18:35:15.665Z,3.92
2023-05-22T18:37:42.541Z,3.20
2023-05-22T18:40:10.329Z,4.02
2023-05-22T18:42:39.095Z,4.10
2023-05-22T18:45:07.109Z,3.69
2023-05-22T18:47:33.930Z,3.10
2023-05-22T18:50:00.797Z,3.13
2023-05-22T18:52:27.588Z,3.02
2023-05-22T18:54:54.498Z,5.30
2023-05-22T18:57:21.348Z,6.20
2023-05-22T18:59:49.857Z,4.74
2023-05-22T19:02:16.743Z,4.14
2023-05-22T19:04:43.800Z,3.43
2023-05-22T19:07:10.697Z,4.42
2023-05-22T19:09:37.527Z,3.75
2023-05-22T19:12:05.136Z,3.32
2023-05-22T19:14:32.467Z,2.98
2023-05-22T19:17:00.747Z,3.62
2023-05-22T19:19:27.757Z,3.57
2023-05-22T19:21:54.890Z,3.54
2023-05-22T19:24:22.196Z,4.10
2023-05-22T19:26:49.088Z,3.88
2023-05-22T19:29:16.076Z,3.38
2023-05-22T19:31:43.012Z,4.14
2023-05-22T19:34:11.397Z,3.57
2023-05-22T19:36:38.497Z,3.48
2023-05-22T19:39:05.369Z,3.16
2023-05-22T19:41:33.280Z,3.58
2023-05-22T19:44:00.143Z,3.23
2023-05-22T19:46:27.020Z,3.09
2023-05-22T19:48:53.927Z,3.97
2023-05-22T19:51:22.290Z,3.95
2023-05-22T19:53:49.088Z,3.41
2023-05-22T19:56:16.029Z,3.34
2023-05-22T19:58:42.877Z,3.53
2023-05-22T20:01:09.923Z,3.38
2023-05-22T20:03:36.959Z,4.49
2023-05-22T20:06:04.068Z,4.26
2023-05-22T20:08:32.215Z,3.63
2023-05-22T20:10:59.176Z,3.89
2023-05-22T20:13:25.963Z,4.10
2023-05-22T20:15:52.893Z,4.15
2023-05-22T20:18:19.734Z,4.43
2023-05-22T20:20:46.687Z,5.25
2023-05-22T20:23:13.459Z,4.65
2023-05-22T20:25:41.918Z,4.33
2023-05-22T20:28:09.029Z,4.48
2023-05-22T20:30:35.787Z,3.93
2023-05-22T20:33:04.270Z,4.29
2023-05-22T20:35:31.244Z,4.70
2023-05-22T20:38:00.788Z,4.68
2023-05-22T20:40:27.628Z,4.97
2023-05-22T20:42:55.804Z,4.46
2023-05-22T20:45:22.849Z,4.41
2023-05-22T20:47:50.263Z,5.19
2023-05-22T20:50:17.251Z,4.88
2023-05-22T20:52:44.099Z,4.45
2023-05-22T20:55:10.888Z,4.23
2023-05-22T20:57:37.882Z,4.25
2023-05-22T21:00:07.420Z,4.37
2023-05-22T21:02:34.277Z,4.95
2023-05-22T21:05:01.163Z,4.53
2023-05-22T21:07:28.078Z,4.27
2023-05-22T21:09:54.892Z,4.50
2023-05-22T21:12:21.774Z,4.41
2023-05-22T21:14:48.629Z,4.12
2023-05-22T21:17:17.545Z,4.79
2023-05-22T21:19:45.189Z,5.49
2023-05-22T21:22:12.201Z,4.57
2023-05-22T21:24:39.139Z,4.31
2023-05-22T21:27:05.980Z,4.22
2023-05-22T21:29:32.730Z,4.65
2023-05-22T21:31:59.688Z,4.45
2023-05-22T21:34:27.896Z,4.07
2023-05-22T21:36:54.746Z,3.45
2023-05-22T21:39:21.528Z,4.83
2023-05-22T21:41:51.863Z,5.36
2023-05-22T21:44:19.518Z,4.21
2023-05-22T21:46:46.546Z,4.37
2023-05-22T21:49:15.793Z,4.46
2023-05-22T21:51:44.874Z,4.11
2023-05-22T21:54:12.094Z,3.56
2023-05-22T21:56:39.215Z,4.02
2023-05-22T21:59:06.026Z,3.90
2023-05-22T22:01:33.150Z,4.16
2023-05-22T22:04:00.132Z,5.34
2023-05-22T22:06:27.101Z,4.33
2023-05-22T22:08:55.280Z,3.90
2023-05-22T22:11:22.034Z,4.05
2023-05-22T22:13:48.835Z,4.62
2023-05-22T22:16:15.708Z,5.46
2023-05-22T22:18:42.540Z,4.61
2023-05-22T22:21:09.468Z,5.57
2023-05-22T22:23:36.221Z,4.94
2023-05-22T22:26:04.452Z,4.28
2023-05-22T22:28:31.239Z,3.87
2023-05-22T22:30:58.066Z,3.73
2023-05-22T22:33:24.966Z,4.89
2023-05-22T22:35:52.504Z,5.47
2023-05-22T22:38:19.545Z,6.45
2023-05-22T22:40:46.403Z,5.86
2023-05-22T22:43:14.950Z,4.97
2023-05-22T22:45:42.053Z,5.66
2023-05-22T22:48:09.619Z,4.95
2023-05-22T22:50:36.432Z,4.86
2023-05-22T22:53:03.786Z,5.08
2023-05-22T22:55:31.130Z,5.10
2023-05-22T22:57:58.145Z,4.40
2023-05-22T23:00:26.419Z,4.68
2023-05-22T23:02:53.372Z,4.44
2023-05-22T23:05:20.825Z,4.03
2023-05-22T23:07:48.260Z,3.64
2023-05-22T23:10:16.437Z,3.78
2023-05-22T23:12:43.828Z,5.33
2023-05-22T23:15:11.810Z,4.86
2023-05-22T23:17:40.885Z,4.09
2023-05-22T23:20:08.972Z,4.12
2023-05-22T23:22:36.553Z,5.54
2023-05-22T23:25:04.755Z,4.99
2023-05-22T23:27:31.760Z,4.96
2023-05-22T23:29:58.578Z,4.29
2023-05-22T23:32:25.431Z,4.01
2023-05-22T23:34:53.569Z,3.99
2023-05-22T23:37:20.481Z,4.53
2023-05-22T23:39:47.346Z,4.23
2023-05-22T23:42:14.272Z,4.11
2023-05-22T23:44:41.184Z,5.31
2023-05-22T23:47:08.280Z,4.64
2023-05-22T23:49:35.308Z,4.34
2023-05-22T23:52:03.716Z,4.10
2023-05-22T23:54:30.590Z,4.91
2023-05-22T23:56:57.395Z,4.59
2023-05-22T23:59:24.170Z,4.25
